North Conway, New Hampshire
Current Conditions -  °F | °C
As of 10:54 PM on Monday 22 Dec 2014 (Local Time) from KIZG Reporting Station
Light Snow Light Snow  
Wind Chill: 31°   Ceiling: 1000
Heat Index: 31°   Visibility: 8mi
Dew Point: 29°   Wind: 0mph
Humidity: 92%   Direction: NA
Pressure: 30.36"   Gusts: NA
Location:  44.05°N, 71.13°W
Report Text: KIZG 230354Z AUTO 00000KT 8SM -SN OVC010 M01/M02 A3036 RMK AO2 SNB06E30B54 SLP287 P0000 T10061017
Loading
Personal Weather Stations






























Interactive Weather Map New forecast layout! Learn more

10-Day Weather Forecast

Advertisements
Track Severe Weather on mobile